Time;durP1;ratioP1;P1;durP2;ratioP2;P2;SDS_P1;SDS_P2;PMS_P1;PMS_P2;Temp;Humidity;BMP_temperature;BMP_pressure;BME280_temperature;BME280_humidity;BME280_pressure;Samples;Min_cycle;Max_cycle;Signal;HPM_P1;HPM_P2
2023/04/06 00:02:06;;;;;;;;;;;1.70;98.60;;;;;;4956693;28;19906;-80
2023/04/06 00:04:36;;;;;;;;;;;1.70;98.60;;;;;;4943318;28;19993;-80
2023/04/06 00:07:07;;;;;;;;;;;1.70;98.70;;;;;;4966974;28;19906;-80
2023/04/06 00:09:42;;;;;;;;;;;1.70;99.00;;;;;;4956139;28;19906;-79
2023/04/06 00:12:15;;;;;;;;;;;1.70;99.30;;;;;;4960836;28;20045;-80
2023/04/06 00:14:52;;;;;;;;;;;1.70;99.70;;;;;;4960193;28;19906;-79
2023/04/06 00:17:20;;;;;;;;;;;1.60;99.90;;;;;;4961971;28;19913;-79
2023/04/06 00:19:52;;;;;;;;;;;1.50;99.90;;;;;;4961754;28;19906;-80
2023/04/06 00:22:20;;;;;;;;;;;1.50;99.90;;;;;;4967739;28;19948;-80
2023/04/06 00:24:46;;;;;;;;;;;1.50;99.90;;;;;;4962103;28;19910;-79
2023/04/06 00:27:13;;;;;;;;;;;1.50;99.90;;;;;;4965928;28;20038;-80
2023/04/06 00:29:40;;;;;;;;;;;1.40;99.90;;;;;;4964422;28;19918;-80
2023/04/06 00:32:06;;;;;;;;;;;1.50;99.90;;;;;;4954248;28;19917;-79
2023/04/06 00:34:33;;;;;;;;;;;1.50;99.90;;;;;;4943443;28;20001;-80
2023/04/06 00:37:03;;;;;;;;;;;1.50;99.90;;;;;;4962482;28;19964;-80
2023/04/06 00:39:35;;;;;;;;;;;1.40;99.90;;;;;;4960130;28;19906;-79
2023/04/06 00:42:07;;;;;;;;;;;1.40;99.90;;;;;;4960037;28;20452;-79
2023/04/06 00:44:34;;;;;;;;;;;1.40;99.90;;;;;;4953687;28;19914;-80
2023/04/06 00:47:08;;;;;;;;;;;1.40;99.90;;;;;;4964509;28;19921;-80
2023/04/06 00:49:43;;;;;;;;;;;1.40;99.90;;;;;;4948089;28;19917;-79
2023/04/06 00:52:12;;;;;;;;;;;1.30;99.90;;;;;;4949416;28;19917;-80
2023/04/06 00:54:47;;;;;;;;;;;1.30;99.90;;;;;;4958615;28;19965;-80
2023/04/06 00:57:15;;;;;;;;;;;1.30;99.90;;;;;;4960921;28;19906;-80
2023/04/06 00:59:44;;;;;;;;;;;1.30;99.90;;;;;;4968205;28;19914;-80
2023/04/06 01:02:14;;;;;;;;;;;1.30;99.90;;;;;;4964923;28;19914;-80
2023/04/06 01:04:41;;;;;;;;;;;1.30;99.90;;;;;;4961301;28;19921;-80
2023/04/06 01:07:07;;;;;;;;;;;1.20;99.90;;;;;;4959738;28;19914;-80
2023/04/06 01:09:32;;;;;;;;;;;1.20;99.90;;;;;;4963143;28;20308;-80
2023/04/06 01:12:04;;;;;;;;;;;1.20;99.90;;;;;;4959972;28;20669;-80
2023/04/06 01:14:30;;;;;;;;;;;1.20;99.90;;;;;;4947944;28;19906;-80
2023/04/06 01:17:03;;;;;;;;;;;1.10;99.90;;;;;;4959967;28;19914;-80
2023/04/06 01:19:30;;;;;;;;;;;1.20;99.90;;;;;;4968743;28;20567;-81
2023/04/06 01:21:57;;;;;;;;;;;1.20;99.90;;;;;;4957796;28;19977;-80
2023/04/06 01:24:29;;;;;;;;;;;1.10;99.90;;;;;;4957459;28;19906;-80
2023/04/06 01:27:00;;;;;;;;;;;1.10;99.90;;;;;;4970313;28;19910;-80
2023/04/06 01:29:30;;;;;;;;;;;1.10;99.90;;;;;;4959892;28;20356;-80
2023/04/06 01:32:02;;;;;;;;;;;1.10;99.90;;;;;;4959488;28;20008;-80
2023/04/06 01:34:29;;;;;;;;;;;1.10;99.90;;;;;;4947585;28;19938;-80
2023/04/06 01:36:55;;;;;;;;;;;1.00;99.90;;;;;;4966211;28;19913;-80
2023/04/06 01:39:36;;;;;;;;;;;1.00;99.90;;;;;;4962906;28;19913;-80
2023/04/06 01:42:03;;;;;;;;;;;1.10;99.90;;;;;;4968908;28;19965;-80
2023/04/06 01:44:36;;;;;;;;;;;1.10;99.90;;;;;;4957010;28;19906;-80
2023/04/06 01:47:06;;;;;;;;;;;1.10;99.90;;;;;;4966750;28;19949;-80
2023/04/06 01:49:40;;;;;;;;;;;1.10;99.90;;;;;;4961595;28;19906;-79
2023/04/06 01:52:07;;;;;;;;;;;1.10;99.90;;;;;;4963098;28;20400;-79
2023/04/06 01:54:42;;;;;;;;;;;1.10;99.90;;;;;;4962529;28;19961;-80
2023/04/06 01:57:08;;;;;;;;;;;1.10;99.90;;;;;;4968528;28;19913;-80
2023/04/06 01:59:35;;;;;;;;;;;1.00;99.90;;;;;;4962677;28;19914;-80
2023/04/06 02:02:01;;;;;;;;;;;1.00;99.90;;;;;;4966619;28;19909;-80
2023/04/06 02:04:27;;;;;;;;;;;1.00;99.90;;;;;;4961607;28;19909;-80
2023/04/06 02:06:59;;;;;;;;;;;1.00;99.90;;;;;;4962309;28;19993;-81
2023/04/06 02:09:32;;;;;;;;;;;1.00;99.90;;;;;;4970795;28;19910;-80
2023/04/06 02:12:07;;;;;;;;;;;0.90;99.90;;;;;;4962483;28;19964;-80
2023/04/06 02:14:33;;;;;;;;;;;0.90;99.90;;;;;;4946335;28;19969;-80
2023/04/06 02:17:00;;;;;;;;;;;0.90;99.90;;;;;;4969843;28;19910;-80
2023/04/06 02:19:28;;;;;;;;;;;0.90;99.90;;;;;;4971676;28;20000;-80
2023/04/06 02:22:15;;;;;;;;;;;0.90;99.90;;;;;;4962136;28;20418;-80
2023/04/06 02:24:41;;;;;;;;;;;0.90;99.90;;;;;;4962030;28;19941;-80
2023/04/06 02:27:13;;;;;;;;;;;0.90;99.90;;;;;;4961354;28;19957;-80
2023/04/06 02:29:39;;;;;;;;;;;0.80;99.90;;;;;;4961870;28;19906;-80
2023/04/06 02:32:11;;;;;;;;;;;0.80;99.90;;;;;;4951874;28;20503;-80
2023/04/06 02:34:44;;;;;;;;;;;0.80;99.90;;;;;;4962149;28;20061;-80
2023/04/06 02:37:11;;;;;;;;;;;0.80;99.90;;;;;;4975703;28;20272;-79
2023/04/06 02:39:39;;;;;;;;;;;0.80;99.90;;;;;;4963212;28;20266;-80
2023/04/06 02:42:06;;;;;;;;;;;0.70;99.90;;;;;;4975476;28;20008;-79
2023/04/06 02:44:32;;;;;;;;;;;0.70;99.90;;;;;;4962453;28;20283;-79
2023/04/06 02:47:02;;;;;;;;;;;0.70;99.90;;;;;;4967764;28;19906;-80
2023/04/06 02:49:28;;;;;;;;;;;0.70;99.90;;;;;;4964475;28;19941;-80
2023/04/06 02:51:54;;;;;;;;;;;0.70;99.90;;;;;;4952100;28;19910;-80
2023/04/06 02:54:20;;;;;;;;;;;0.70;99.90;;;;;;4966589;28;19922;-80
2023/04/06 02:56:47;;;;;;;;;;;0.70;99.90;;;;;;4945378;28;19913;-79
2023/04/06 02:59:12;;;;;;;;;;;0.60;99.90;;;;;;4981932;28;19906;-80
2023/04/06 03:01:39;;;;;;;;;;;0.60;99.90;;;;;;4970610;28;19914;-80
2023/04/06 03:04:05;;;;;;;;;;;0.60;99.90;;;;;;4953789;28;19920;-80
2023/04/06 03:06:31;;;;;;;;;;;0.60;99.90;;;;;;4967306;28;20000;-80
2023/04/06 03:08:56;;;;;;;;;;;0.60;99.90;;;;;;4959005;28;19910;-80
2023/04/06 03:11:22;;;;;;;;;;;0.60;99.90;;;;;;4960072;28;19916;-80
2023/04/06 03:13:47;;;;;;;;;;;0.70;99.90;;;;;;4946188;28;20462;-80
2023/04/06 03:16:13;;;;;;;;;;;0.60;99.90;;;;;;4962036;28;19910;-80
2023/04/06 03:18:38;;;;;;;;;;;0.60;99.90;;;;;;4947656;28;19910;-80
2023/04/06 03:21:04;;;;;;;;;;;0.60;99.90;;;;;;4962045;28;19906;-80
2023/04/06 03:23:39;;;;;;;;;;;0.60;99.90;;;;;;4957920;28;20648;-80
2023/04/06 03:26:11;;;;;;;;;;;0.60;99.90;;;;;;4960409;28;19914;-80
2023/04/06 03:28:36;;;;;;;;;;;0.50;99.90;;;;;;4960998;28;19921;-80
2023/04/06 03:31:04;;;;;;;;;;;0.50;99.90;;;;;;4965422;28;19955;-79
2023/04/06 03:33:32;;;;;;;;;;;0.50;99.90;;;;;;4960953;28;19914;-80
2023/04/06 03:36:01;;;;;;;;;;;0.50;99.90;;;;;;4969494;28;20298;-80
2023/04/06 03:38:32;;;;;;;;;;;0.60;99.90;;;;;;4964746;28;19940;-80
2023/04/06 03:41:06;;;;;;;;;;;0.50;99.90;;;;;;4965019;28;20544;-79
2023/04/06 03:43:34;;;;;;;;;;;0.50;99.90;;;;;;4960296;28;19914;-80
2023/04/06 03:46:08;;;;;;;;;;;0.50;99.90;;;;;;4960401;28;19912;-79
2023/04/06 03:48:34;;;;;;;;;;;0.50;99.90;;;;;;4967597;28;19910;-79
2023/04/06 03:51:03;;;;;;;;;;;0.60;99.90;;;;;;4966621;28;19914;-80
2023/04/06 03:53:36;;;;;;;;;;;0.50;99.90;;;;;;4971441;28;19913;-80
2023/04/06 03:56:07;;;;;;;;;;;0.50;99.90;;;;;;4962039;28;20351;-80
2023/04/06 03:58:38;;;;;;;;;;;0.50;99.90;;;;;;4965289;28;19910;-80
2023/04/06 04:01:05;;;;;;;;;;;0.50;99.90;;;;;;4960503;28;19906;-79
2023/04/06 04:03:31;;;;;;;;;;;0.50;99.90;;;;;;4954763;28;20012;-80
2023/04/06 04:05:57;;;;;;;;;;;0.50;99.90;;;;;;4964627;28;19948;-80
2023/04/06 04:08:26;;;;;;;;;;;0.50;99.90;;;;;;4962501;28;20890;-79
2023/04/06 04:10:52;;;;;;;;;;;0.50;99.90;;;;;;4960582;28;19910;-79
2023/04/06 04:13:20;;;;;;;;;;;0.50;99.90;;;;;;4975054;28;19917;-80
2023/04/06 04:15:47;;;;;;;;;;;0.50;99.90;;;;;;4970620;28;20396;-79
2023/04/06 04:18:16;;;;;;;;;;;0.50;99.90;;;;;;4965460;28;19913;-80
2023/04/06 04:20:45;;;;;;;;;;;0.50;99.90;;;;;;4956732;28;19914;-81
2023/04/06 04:23:14;;;;;;;;;;;0.50;99.90;;;;;;4962538;28;19964;-82
2023/04/06 04:25:40;;;;;;;;;;;0.50;99.90;;;;;;4967828;28;19945;-81
2023/04/06 04:28:08;;;;;;;;;;;0.60;99.90;;;;;;4961383;28;19942;-81
2023/04/06 04:30:38;;;;;;;;;;;0.60;99.90;;;;;;4970560;28;19960;-82
2023/04/06 04:33:15;;;;;;;;;;;0.60;99.90;;;;;;4968101;28;20040;-82
2023/04/06 04:35:49;;;;;;;;;;;0.70;99.90;;;;;;4960492;28;20848;-81
2023/04/06 04:38:14;;;;;;;;;;;0.70;99.90;;;;;;4950133;28;19914;-81
2023/04/06 04:40:40;;;;;;;;;;;0.80;99.90;;;;;;4959945;28;19918;-82
2023/04/06 04:43:11;;;;;;;;;;;0.80;99.90;;;;;;4968121;28;19914;-82
2023/04/06 04:45:38;;;;;;;;;;;0.80;99.90;;;;;;4965005;28;19989;-82
2023/04/06 04:48:07;;;;;;;;;;;0.90;99.90;;;;;;4960219;28;19988;-81
2023/04/06 04:50:33;;;;;;;;;;;1.00;99.90;;;;;;4978238;28;19906;-86
2023/04/06 04:53:05;;;;;;;;;;;1.10;99.90;;;;;;4998651;28;19894;-87
2023/04/06 05:00:54;;;;;;;;;;;1.70;99.90;;;;;;4999979;23;19933;-79
2023/04/06 05:03:26;;;;;;;;;;;1.90;99.90;;;;;;4957341;28;19928;-79
2023/04/06 05:05:57;;;;;;;;;;;2.30;99.90;;;;;;4972533;28;19906;-79
2023/04/06 05:08:36;;;;;;;;;;;2.70;99.90;;;;;;4983616;28;20355;-80
2023/04/06 05:11:04;;;;;;;;;;;3.20;99.20;;;;;;4979606;28;20341;-80
2023/04/06 05:13:34;;;;;;;;;;;3.70;98.00;;;;;;4985022;28;19996;-80
2023/04/06 05:16:03;;;;;;;;;;;4.40;96.40;;;;;;4969468;28;19914;-81
2023/04/06 05:18:45;;;;;;;;;;;5.30;94.00;;;;;;4978602;28;19941;-80
2023/04/06 05:21:14;;;;;;;;;;;6.20;91.50;;;;;;4985582;28;19992;-81
2023/04/06 05:23:56;;;;;;;;;;;7.50;85.20;;;;;;4978131;28;19960;-81
2023/04/06 05:26:26;;;;;;;;;;;8.70;77.70;;;;;;4986771;28;20351;-81
2023/04/06 05:28:51;;;;;;;;;;;9.50;71.30;;;;;;4979869;28;19953;-81
2023/04/06 05:31:18;;;;;;;;;;;10.00;68.00;;;;;;4976113;28;20452;-81
2023/04/06 05:33:45;;;;;;;;;;;10.70;65.40;;;;;;4985760;28;19910;-81
2023/04/06 05:36:15;;;;;;;;;;;11.90;61.90;;;;;;4980444;28;20667;-81
2023/04/06 05:38:42;;;;;;;;;;;12.90;57.70;;;;;;4980050;28;20515;-81
2023/04/06 05:41:11;;;;;;;;;;;14.10;54.30;;;;;;4972150;28;19920;-82
2023/04/06 05:43:42;;;;;;;;;;;15.00;51.60;;;;;;4981458;28;19956;-79
2023/04/06 05:46:14;;;;;;;;;;;16.10;49.80;;;;;;4986984;28;19921;-82
2023/04/06 05:48:43;;;;;;;;;;;17.10;46.80;;;;;;4966026;28;19906;-80
2023/04/06 05:51:09;;;;;;;;;;;16.60;45.20;;;;;;4983614;28;20012;-82
2023/04/06 05:53:34;;;;;;;;;;;16.30;45.40;;;;;;4997001;28;20012;-82
2023/04/06 05:56:04;;;;;;;;;;;16.40;45.60;;;;;;4985344;28;20374;-82
2023/04/06 05:58:29;;;;;;;;;;;17.10;45.20;;;;;;4973182;28;19969;-78
2023/04/06 06:00:59;;;;;;;;;;;17.50;43.60;;;;;;4985716;28;20031;-78
2023/04/06 06:03:26;;;;;;;;;;;17.60;43.40;;;;;;4969259;28;20005;-80
2023/04/06 06:06:03;;;;;;;;;;;18.30;42.80;;;;;;4970722;28;19913;-79
2023/04/06 06:08:29;;;;;;;;;;;18.10;42.60;;;;;;4972135;28;20000;-80
2023/04/06 06:10:56;;;;;;;;;;;18.40;42.70;;;;;;4974777;28;20536;-80
2023/04/06 06:13:28;;;;;;;;;;;19.40;41.80;;;;;;4982587;28;19909;-78
2023/04/06 06:15:55;;;;;;;;;;;20.40;41.30;;;;;;4983288;28;19917;-80
2023/04/06 06:18:27;;;;;;;;;;;20.10;40.30;;;;;;4979688;28;19909;-79
2023/04/06 06:20:54;;;;;;;;;;;21.20;39.80;;;;;;4985811;28;19916;-78
2023/04/06 06:23:24;;;;;;;;;;;21.20;39.00;;;;;;4971942;28;20021;-78
2023/04/06 06:25:58;;;;;;;;;;;21.40;38.30;;;;;;4989656;28;19906;-78
2023/04/06 06:28:36;;;;;;;;;;;22.50;38.30;;;;;;4965215;28;19906;-78
2023/04/06 06:31:07;;;;;;;;;;;22.60;37.40;;;;;;4972816;28;19917;-79
2023/04/06 06:33:34;;;;;;;;;;;22.30;37.00;;;;;;4979572;28;19952;-78
2023/04/06 06:36:00;;;;;;;;;;;22.90;36.80;;;;;;4981221;28;19910;-79
2023/04/06 06:38:36;;;;;;;;;;;23.20;36.40;;;;;;4989196;28;19984;-79
2023/04/06 06:41:04;;;;;;;;;;;23.60;36.10;;;;;;4980944;28;19950;-78
2023/04/06 06:43:30;;;;;;;;;;;23.60;35.50;;;;;;4972339;28;19917;-79
2023/04/06 06:45:58;;;;;;;;;;;23.90;35.70;;;;;;4964997;28;19940;-79
2023/04/06 06:48:24;;;;;;;;;;;23.30;35.40;;;;;;4978749;28;20693;-80
2023/04/06 06:50:50;;;;;;;;;;;23.90;35.50;;;;;;4968189;28;19913;-80
2023/04/06 06:53:15;;;;;;;;;;;24.50;35.10;;;;;;4976906;28;20423;-79
2023/04/06 06:55:43;;;;;;;;;;;25.00;34.60;;;;;;4974497;28;20008;-80
2023/04/06 06:58:09;;;;;;;;;;;25.30;34.70;;;;;;4982177;28;19916;-79
2023/04/06 07:00:35;;;;;;;;;;;25.50;34.20;;;;;;4982428;28;20720;-80
2023/04/06 07:03:00;;;;;;;;;;;25.00;33.80;;;;;;4970468;28;20410;-80
2023/04/06 07:05:26;;;;;;;;;;;24.30;34.60;;;;;;4964472;28;19992;-80
2023/04/06 07:07:52;;;;;;;;;;;24.10;35.30;;;;;;4965976;28;19909;-80
2023/04/06 07:10:17;;;;;;;;;;;22.70;36.20;;;;;;4989315;28;20389;-80
2023/04/06 07:12:43;;;;;;;;;;;23.00;36.40;;;;;;4976034;28;20389;-80
2023/04/06 07:15:09;;;;;;;;;;;23.50;36.00;;;;;;4991093;28;20889;-80
2023/04/06 07:17:34;;;;;;;;;;;24.60;35.50;;;;;;4976437;28;19910;-78
2023/04/06 07:20:00;;;;;;;;;;;25.10;35.00;;;;;;4983242;28;19913;-79
2023/04/06 07:22:26;;;;;;;;;;;25.00;35.10;;;;;;4977202;28;19905;-78
2023/04/06 07:24:52;;;;;;;;;;;23.80;36.40;;;;;;4978918;28;19917;-80
2023/04/06 07:27:18;;;;;;;;;;;23.70;36.00;;;;;;4983518;28;19952;-77
2023/04/06 07:29:44;;;;;;;;;;;24.20;35.30;;;;;;4974842;28;19906;-77
2023/04/06 07:32:10;;;;;;;;;;;24.50;35.90;;;;;;4969687;28;19909;-77
2023/04/06 07:34:37;;;;;;;;;;;23.00;35.50;;;;;;4979163;28;19964;-78
2023/04/06 07:37:04;;;;;;;;;;;22.70;36.80;;;;;;4983232;28;19906;-77
2023/04/06 07:39:35;;;;;;;;;;;23.60;36.20;;;;;;4982924;28;19910;-78
2023/04/06 07:42:03;;;;;;;;;;;23.00;35.90;;;;;;4972813;28;19913;-78
2023/04/06 07:44:31;;;;;;;;;;;23.20;37.10;;;;;;4981665;28;19910;-78
2023/04/06 07:46:56;;;;;;;;;;;24.80;36.10;;;;;;4975067;28;19910;-78
2023/04/06 07:49:25;;;;;;;;;;;26.20;35.20;;;;;;4968543;28;19925;-80
2023/04/06 07:51:50;;;;;;;;;;;27.10;34.50;;;;;;4981775;28;19914;-79
2023/04/06 07:54:16;;;;;;;;;;;27.90;34.00;;;;;;4981945;28;19917;-79
2023/04/06 07:56:41;;;;;;;;;;;27.30;33.60;;;;;;4978193;28;19933;-80
2023/04/06 07:59:07;;;;;;;;;;;27.50;34.20;;;;;;4989667;28;19921;-79
2023/04/06 08:01:32;;;;;;;;;;;29.10;33.90;;;;;;4977873;28;19909;-80
2023/04/06 08:03:58;;;;;;;;;;;28.50;33.00;;;;;;4981338;28;19906;-79
2023/04/06 08:06:24;;;;;;;;;;;29.40;33.10;;;;;;4963691;28;19949;-79
2023/04/06 08:08:50;;;;;;;;;;;29.70;32.50;;;;;;4982040;28;19909;-80
2023/04/06 08:11:16;;;;;;;;;;;30.50;32.20;;;;;;4972003;28;19910;-79
2023/04/06 08:13:42;;;;;;;;;;;30.70;31.10;;;;;;4981251;28;20690;-80
2023/04/06 08:16:09;;;;;;;;;;;30.70;31.20;;;;;;4979194;28;20732;-81
2023/04/06 08:18:43;;;;;;;;;;;29.90;31.50;;;;;;4978923;28;21386;-80
2023/04/06 08:21:09;;;;;;;;;;;30.00;31.50;;;;;;4984993;28;19945;-80
2023/04/06 08:23:37;;;;;;;;;;;30.00;31.40;;;;;;4982091;28;19914;-79
2023/04/06 08:26:04;;;;;;;;;;;28.50;31.50;;;;;;4978735;28;20017;-79
2023/04/06 08:28:30;;;;;;;;;;;28.30;31.70;;;;;;4979039;28;19921;-81
2023/04/06 08:31:05;;;;;;;;;;;28.50;32.00;;;;;;4969996;28;19936;-80
2023/04/06 08:33:31;;;;;;;;;;;28.90;32.10;;;;;;4979268;28;20267;-80
2023/04/06 08:35:56;;;;;;;;;;;28.90;32.30;;;;;;4975227;28;19905;-79
2023/04/06 08:38:29;;;;;;;;;;;26.90;33.00;;;;;;4979437;28;19909;-80
2023/04/06 08:41:11;;;;;;;;;;;28.70;33.40;;;;;;4980392;28;19941;-80
2023/04/06 08:43:44;;;;;;;;;;;28.30;31.60;;;;;;4967238;28;19913;-80
2023/04/06 08:46:11;;;;;;;;;;;27.30;32.40;;;;;;4977749;28;20465;-79
2023/04/06 08:48:41;;;;;;;;;;;28.20;32.20;;;;;;4979457;28;19957;-79
2023/04/06 08:51:07;;;;;;;;;;;29.10;32.00;;;;;;4982722;28;19987;-80
2023/04/06 08:53:34;;;;;;;;;;;27.60;32.70;;;;;;4967673;28;19917;-79
2023/04/06 08:56:04;;;;;;;;;;;27.30;33.20;;;;;;4970258;28;19945;-79
2023/04/06 08:58:34;;;;;;;;;;;28.40;33.10;;;;;;4979372;28;19949;-79
2023/04/06 09:01:00;;;;;;;;;;;28.60;32.40;;;;;;4978892;28;20338;-79
2023/04/06 09:03:29;;;;;;;;;;;28.90;32.70;;;;;;4965001;28;19913;-80
2023/04/06 09:05:56;;;;;;;;;;;26.20;32.60;;;;;;4982947;28;19963;-78
2023/04/06 09:08:25;;;;;;;;;;;26.30;33.70;;;;;;4978979;28;20005;-80
2023/04/06 09:10:52;;;;;;;;;;;26.90;33.10;;;;;;4981909;28;19910;-78
2023/04/06 09:13:22;;;;;;;;;;;27.60;32.60;;;;;;4964091;28;20287;-80
2023/04/06 09:15:51;;;;;;;;;;;25.80;33.20;;;;;;4979790;28;19910;-78
2023/04/06 09:18:27;;;;;;;;;;;23.90;34.10;;;;;;4980517;28;19910;-81
2023/04/06 09:20:59;;;;;;;;;;;23.80;35.60;;;;;;4976078;28;19914;-80
2023/04/06 09:23:25;;;;;;;;;;;23.60;35.20;;;;;;4981345;28;19913;-80
2023/04/06 09:26:04;;;;;;;;;;;23.50;35.20;;;;;;4982017;28;19905;-79
2023/04/06 09:28:40;;;;;;;;;;;21.70;35.80;;;;;;4974146;28;20279;-82
2023/04/06 09:31:06;;;;;;;;;;;19.60;37.40;;;;;;4983174;28;21406;-81
2023/04/06 09:33:31;;;;;;;;;;;20.60;38.20;;;;;;4978152;28;19956;-83
2023/04/06 09:36:00;;;;;;;;;;;22.20;36.30;;;;;;4963631;28;19917;-82
2023/04/06 09:38:27;;;;;;;;;;;23.60;36.60;;;;;;4978341;28;19914;-82
2023/04/06 09:40:53;;;;;;;;;;;24.60;34.50;;;;;;4969693;28;20000;-79
2023/04/06 09:43:32;;;;;;;;;;;25.00;34.00;;;;;;4978764;28;19992;-82
2023/04/06 09:46:02;;;;;;;;;;;22.90;35.20;;;;;;4979922;28;19916;-80
2023/04/06 09:48:31;;;;;;;;;;;20.50;36.30;;;;;;4968280;28;19964;-81
2023/04/06 09:50:59;;;;;;;;;;;22.30;36.40;;;;;;4968770;28;20377;-79
2023/04/06 09:53:27;;;;;;;;;;;24.40;35.20;;;;;;4978424;28;19906;-79
2023/04/06 09:55:56;;;;;;;;;;;22.10;35.30;;;;;;4958597;28;19910;-82
2023/04/06 09:58:26;;;;;;;;;;;24.20;35.00;;;;;;4976657;28;19952;-81
2023/04/06 10:01:00;;;;;;;;;;;23.20;34.00;;;;;;4970467;28;19921;-82
2023/04/06 10:03:56;;;;;;;;;;;23.00;34.40;;;;;;4978809;28;19906;-83
2023/04/06 10:06:39;;;;;;;;;;;23.50;33.50;;;;;;4978254;28;19906;-81
2023/04/06 10:09:07;;;;;;;;;;;25.50;32.90;;;;;;4971182;28;19937;-81
2023/04/06 10:11:38;;;;;;;;;;;25.90;31.90;;;;;;4995026;28;19913;-82
2023/04/06 10:14:06;;;;;;;;;;;24.70;31.90;;;;;;4981030;28;20012;-81
2023/04/06 10:16:36;;;;;;;;;;;23.10;33.00;;;;;;4977019;28;19921;-81
2023/04/06 10:19:11;;;;;;;;;;;21.30;34.60;;;;;;4981940;28;19968;-81
2023/04/06 10:21:41;;;;;;;;;;;19.60;35.20;;;;;;4987695;28;20013;-81
2023/04/06 10:24:13;;;;;;;;;;;16.80;38.10;;;;;;4983690;28;20209;-80
2023/04/06 10:27:08;;;;;;;;;;;16.50;39.60;;;;;;4972719;28;19913;-81
2023/04/06 10:29:45;;;;;;;;;;;18.80;38.40;;;;;;4980711;28;19952;-82
2023/04/06 10:32:20;;;;;;;;;;;20.50;35.80;;;;;;4985113;28;20713;-81
2023/04/06 10:34:49;;;;;;;;;;;22.80;34.30;;;;;;4970658;28;19913;-81
2023/04/06 10:37:18;;;;;;;;;;;24.30;32.70;;;;;;4983230;28;20335;-81
2023/04/06 10:39:57;;;;;;;;;;;23.00;33.90;;;;;;4976992;28;19989;-80
2023/04/06 10:42:46;;;;;;;;;;;24.10;33.30;;;;;;4986481;28;19916;-81
2023/04/06 10:45:26;;;;;;;;;;;23.80;32.90;;;;;;4984077;28;20000;-82
2023/04/06 10:47:55;;;;;;;;;;;25.10;32.20;;;;;;4970311;28;19953;-82
2023/04/06 10:50:27;;;;;;;;;;;24.20;32.20;;;;;;4980428;28;20374;-81
2023/04/06 10:53:00;;;;;;;;;;;23.90;33.30;;;;;;4978082;28;19909;-82
2023/04/06 10:55:38;;;;;;;;;;;21.80;33.90;;;;;;4985888;28;19912;-81
2023/04/06 10:58:05;;;;;;;;;;;18.20;36.00;;;;;;4981883;28;19914;-81
2023/04/06 11:00:32;;;;;;;;;;;18.80;37.30;;;;;;4972214;28;19969;-81
2023/04/06 11:03:02;;;;;;;;;;;19.00;36.30;;;;;;4969916;28;19909;-80
2023/04/06 11:05:29;;;;;;;;;;;18.00;37.60;;;;;;4969422;28;19909;-81
2023/04/06 11:07:55;;;;;;;;;;;17.00;38.80;;;;;;4965535;28;20264;-80
2023/04/06 11:13:24;;;;;;;;;;;16.70;39.50;;;;;;4984850;28;19909;-81
2023/04/06 11:15:52;;;;;;;;;;;17.30;39.60;;;;;;4984891;28;19910;-80
2023/04/06 11:18:17;;;;;;;;;;;17.00;39.10;;;;;;4973498;28;20326;-81
2023/04/06 11:20:47;;;;;;;;;;;16.70;39.20;;;;;;4982607;28;19906;-81
2023/04/06 11:23:23;;;;;;;;;;;16.10;39.30;;;;;;4980748;28;19941;-80
2023/04/06 11:25:52;;;;;;;;;;;15.30;40.40;;;;;;4979816;28;19952;-80
2023/04/06 11:28:19;;;;;;;;;;;14.90;40.60;;;;;;4982483;28;20004;-81
2023/04/06 11:30:49;;;;;;;;;;;14.70;40.90;;;;;;4977069;28;19956;-81
2023/04/06 11:33:22;;;;;;;;;;;14.50;42.30;;;;;;4976500;28;19909;-80
2023/04/06 11:35:48;;;;;;;;;;;14.90;41.60;;;;;;4982665;28;19996;-81
2023/04/06 11:38:17;;;;;;;;;;;14.70;41.60;;;;;;4980581;28;20449;-80
2023/04/06 11:40:57;;;;;;;;;;;14.70;41.90;;;;;;4980920;28;20389;-80
2023/04/06 11:43:30;;;;;;;;;;;14.50;41.60;;;;;;4977897;28;19906;-80
2023/04/06 11:46:04;;;;;;;;;;;14.30;41.90;;;;;;4983420;28;19910;-81
2023/04/06 11:48:31;;;;;;;;;;;14.50;42.00;;;;;;4976515;28;20003;-81
2023/04/06 11:50:58;;;;;;;;;;;14.80;41.20;;;;;;4970720;28;20395;-80
2023/04/06 11:53:24;;;;;;;;;;;14.30;41.80;;;;;;4967855;28;20323;-80
2023/04/06 11:55:51;;;;;;;;;;;14.60;42.10;;;;;;4980862;28;19905;-80
2023/04/06 11:58:18;;;;;;;;;;;14.80;41.40;;;;;;4980617;28;19938;-81
2023/04/06 12:00:45;;;;;;;;;;;14.70;41.00;;;;;;4981435;28;19940;-81
2023/04/06 12:03:11;;;;;;;;;;;15.10;40.90;;;;;;4968943;28;19913;-81
2023/04/06 12:05:38;;;;;;;;;;;15.30;40.50;;;;;;4987787;28;19914;-81
2023/04/06 12:08:06;;;;;;;;;;;15.30;39.80;;;;;;4991957;28;19913;-80
2023/04/06 12:10:32;;;;;;;;;;;15.10;40.20;;;;;;4966481;28;19913;-81
2023/04/06 12:13:01;;;;;;;;;;;14.80;40.10;;;;;;4968984;28;19906;-81
2023/04/06 12:15:28;;;;;;;;;;;14.10;40.80;;;;;;4969437;28;19917;-81
2023/04/06 12:17:59;;;;;;;;;;;13.80;42.10;;;;;;4979790;28;19910;-81
2023/04/06 12:20:30;;;;;;;;;;;14.10;42.00;;;;;;4971821;28;20025;-80
2023/04/06 12:22:57;;;;;;;;;;;14.50;42.10;;;;;;4980164;28;19906;-81
2023/04/06 12:25:39;;;;;;;;;;;14.80;41.30;;;;;;4985515;28;19939;-81
2023/04/06 12:28:05;;;;;;;;;;;15.40;40.60;;;;;;4974792;28;19941;-81
2023/04/06 12:30:38;;;;;;;;;;;15.50;40.50;;;;;;4982790;28;19953;-81
2023/04/06 12:33:03;;;;;;;;;;;15.60;40.00;;;;;;4978640;28;19914;-81
2023/04/06 12:35:33;;;;;;;;;;;15.90;39.90;;;;;;4965423;28;21366;-80
2023/04/06 12:37:59;;;;;;;;;;;16.00;39.80;;;;;;4972330;28;19916;-81
2023/04/06 12:40:25;;;;;;;;;;;16.10;39.50;;;;;;4984020;28;19913;-80
2023/04/06 12:42:55;;;;;;;;;;;16.30;39.50;;;;;;4963979;28;19910;-80
2023/04/06 12:45:21;;;;;;;;;;;15.60;39.60;;;;;;4977521;28;20274;-80
2023/04/06 12:48:00;;;;;;;;;;;15.20;40.10;;;;;;4978772;28;20524;-81
2023/04/06 12:50:27;;;;;;;;;;;15.20;40.70;;;;;;4982101;28;20307;-80
2023/04/06 12:52:54;;;;;;;;;;;15.40;40.60;;;;;;4967272;28;20004;-81
2023/04/06 12:55:36;;;;;;;;;;;15.40;40.40;;;;;;4982650;28;19940;-80
2023/04/06 12:58:02;;;;;;;;;;;15.20;40.70;;;;;;4977261;28;19921;-81
2023/04/06 13:00:30;;;;;;;;;;;15.20;41.10;;;;;;4978760;28;19913;-80
2023/04/06 13:02:56;;;;;;;;;;;15.10;41.10;;;;;;4973503;28;19905;-80
2023/04/06 13:05:22;;;;;;;;;;;14.90;41.10;;;;;;4969855;28;19921;-80
2023/04/06 13:07:58;;;;;;;;;;;14.70;40.80;;;;;;4979454;28;20275;-80
2023/04/06 13:10:30;;;;;;;;;;;14.50;40.80;;;;;;4981700;28;19912;-80
2023/04/06 13:12:56;;;;;;;;;;;14.00;41.10;;;;;;4961695;28;19910;-80
2023/04/06 13:15:31;;;;;;;;;;;13.50;41.80;;;;;;4978894;28;19906;-81
2023/04/06 13:18:00;;;;;;;;;;;13.20;42.40;;;;;;4961972;28;19913;-80
2023/04/06 13:20:29;;;;;;;;;;;13.20;42.90;;;;;;4974286;28;19906;-80
2023/04/06 13:22:57;;;;;;;;;;;13.10;43.10;;;;;;4968492;28;19906;-81
2023/04/06 13:25:24;;;;;;;;;;;13.00;43.60;;;;;;4977924;28;19910;-80
2023/04/06 13:27:52;;;;;;;;;;;12.80;43.90;;;;;;4977908;28;19949;-80
2023/04/06 13:30:21;;;;;;;;;;;12.70;43.70;;;;;;4979136;28;19906;-80
2023/04/06 13:32:49;;;;;;;;;;;12.70;44.10;;;;;;4978522;28;19910;-80
2023/04/06 13:35:14;;;;;;;;;;;12.70;43.90;;;;;;4966139;28;20363;-81
2023/04/06 13:37:42;;;;;;;;;;;12.70;43.90;;;;;;4969140;28;19906;-80
2023/04/06 13:40:08;;;;;;;;;;;12.70;43.40;;;;;;4976627;28;19920;-80
2023/04/06 13:42:37;;;;;;;;;;;12.80;43.50;;;;;;4986475;28;20540;-81
2023/04/06 13:45:07;;;;;;;;;;;12.80;43.70;;;;;;4967448;28;19917;-81
2023/04/06 13:47:33;;;;;;;;;;;12.80;43.70;;;;;;4980704;28;19914;-80
2023/04/06 13:50:14;;;;;;;;;;;12.80;44.20;;;;;;4971807;28;19902;-80
2023/04/06 13:52:41;;;;;;;;;;;12.80;44.30;;;;;;4988592;28;20318;-81
2023/04/06 13:55:07;;;;;;;;;;;12.80;44.10;;;;;;4991497;28;19910;-80
2023/04/06 13:57:34;;;;;;;;;;;12.80;44.00;;;;;;4982018;28;19925;-80
2023/04/06 14:00:01;;;;;;;;;;;12.70;44.10;;;;;;4969885;28;19968;-80
2023/04/06 14:02:31;;;;;;;;;;;12.70;44.20;;;;;;4982078;28;19910;-80
2023/04/06 14:04:57;;;;;;;;;;;12.70;43.90;;;;;;4981696;28;20323;-80
2023/04/06 14:07:28;;;;;;;;;;;12.80;44.30;;;;;;4967587;28;19909;-80
2023/04/06 14:09:56;;;;;;;;;;;12.70;44.20;;;;;;4977236;28;20715;-80
2023/04/06 14:12:24;;;;;;;;;;;12.60;44.50;;;;;;4985010;28;19945;-80
2023/04/06 14:15:00;;;;;;;;;;;12.70;44.40;;;;;;4971315;28;19913;-80
2023/04/06 14:17:28;;;;;;;;;;;12.70;44.20;;;;;;4970164;28;19936;-80
2023/04/06 14:19:53;;;;;;;;;;;12.50;44.30;;;;;;4982205;28;19956;-80
2023/04/06 14:22:20;;;;;;;;;;;12.40;44.70;;;;;;4974329;28;19905;-79
2023/04/06 14:24:51;;;;;;;;;;;12.30;45.00;;;;;;4980026;28;19909;-80
2023/04/06 14:27:21;;;;;;;;;;;12.40;45.20;;;;;;4984213;28;19906;-80
2023/04/06 14:29:48;;;;;;;;;;;11.90;45.40;;;;;;4979388;28;19916;-80
2023/04/06 14:32:28;;;;;;;;;;;12.10;45.50;;;;;;4968550;28;19913;-80
2023/04/06 14:35:01;;;;;;;;;;;12.30;45.80;;;;;;4977274;28;19913;-81
2023/04/06 14:37:27;;;;;;;;;;;12.40;45.30;;;;;;4969188;28;19916;-81
2023/04/06 14:39:53;;;;;;;;;;;12.60;45.30;;;;;;4981224;28;19910;-80
2023/04/06 14:42:36;;;;;;;;;;;12.50;45.00;;;;;;4981441;28;19905;-80